Time;durP1;ratioP1;P1;durP2;ratioP2;P2;SDS_P1;SDS_P2;PMS_P1;PMS_P2;Temp;Humidity;BMP_temperature;BMP_pressure;BME280_temperature;BME280_humidity;BME280_pressure;Samples;Min_cycle;Max_cycle;Signal;HPM_P1;HPM_P2
2023/05/25 00:02:14;;;;;;;;;;;;;;;13.28;38.67;97930.88;6231535;28;19928;-75
2023/05/25 00:05:19;;;;;;;;;;;;;;;13.39;38.37;97922.28;6249416;28;19921;-75
2023/05/25 00:08:24;;;;;;;;;;;;;;;13.53;38.10;97926.75;6248981;28;19921;-73
2023/05/25 00:11:30;;;;;;;;;;;;;;;13.62;38.11;97928.88;6248930;28;20310;-73
2023/05/25 00:14:31;;;;;;;;;;;;;;;13.70;38.71;97931.88;6247970;28;19921;-74
2023/05/25 00:17:32;;;;;;;;;;;;;;;13.79;37.86;97930.50;6248431;28;20015;-75
2023/05/25 00:20:38;;;;;;;;;;;;;;;13.86;38.42;97932.66;6248955;28;20386;-75
2023/05/25 00:23:45;;;;;;;;;;;;;;;13.92;38.46;97929.63;6248658;28;19921;-74
2023/05/25 00:26:50;;;;;;;;;;;;;;;14.03;38.01;97925.47;6247954;28;19924;-74
2023/05/25 00:29:51;;;;;;;;;;;;;;;14.11;37.83;97936.44;6247609;28;19928;-75
2023/05/25 00:32:55;;;;;;;;;;;;;;;14.19;37.80;97933.31;6248450;28;20314;-75
2023/05/25 00:35:59;;;;;;;;;;;;;;;14.28;38.54;97944.16;6248575;28;19921;-75
2023/05/25 00:39:02;;;;;;;;;;;;;;;14.38;37.69;97934.72;6246208;28;19921;-75
2023/05/25 00:42:06;;;;;;;;;;;;;;;14.48;37.51;97928.81;6248318;28;19921;-74
2023/05/25 00:45:10;;;;;;;;;;;;;;;14.57;37.20;97928.25;6247584;28;19925;-74
2023/05/25 00:48:16;;;;;;;;;;;;;;;14.67;37.75;97928.53;6230433;28;20366;-75
2023/05/25 00:51:19;;;;;;;;;;;;;;;14.77;37.29;97919.88;6247170;28;20379;-74
2023/05/25 00:54:23;;;;;;;;;;;;;;;14.91;37.26;97926.06;6248065;28;19920;-74
2023/05/25 00:57:24;;;;;;;;;;;;;;;15.01;37.48;97937.78;6229505;28;19921;-76
2023/05/25 01:00:26;;;;;;;;;;;;;;;15.12;36.54;97943.22;6247037;28;19921;-74
2023/05/25 01:03:30;;;;;;;;;;;;;;;15.24;36.81;97944.22;6247303;28;20378;-74
2023/05/25 01:06:35;;;;;;;;;;;;;;;15.35;36.80;97946.16;6246952;28;19921;-75
2023/05/25 01:09:40;;;;;;;;;;;;;;;15.46;37.60;97948.94;6248162;28;20285;-76
2023/05/25 01:12:43;;;;;;;;;;;;;;;15.59;36.54;97949.78;6246835;28;19927;-74
2023/05/25 01:15:47;;;;;;;;;;;;;;;15.71;36.21;97958.75;6246247;28;19921;-74
2023/05/25 01:18:51;;;;;;;;;;;;;;;15.80;36.37;97954.63;6247156;28;19925;-74
2023/05/25 01:22:02;;;;;;;;;;;;;;;15.88;36.30;97960.22;6246555;28;19921;-75
2023/05/25 01:25:08;;;;;;;;;;;;;;;15.93;36.54;97960.75;6247287;28;19921;-76
2023/05/25 01:28:27;;;;;;;;;;;;;;;15.98;36.83;97956.00;6246735;28;19921;-75
2023/05/25 01:31:32;;;;;;;;;;;;;;;16.04;36.69;97958.22;6247171;28;19920;-74
2023/05/25 01:34:36;;;;;;;;;;;;;;;16.07;36.98;97965.97;6246871;28;19921;-75
2023/05/25 01:37:40;;;;;;;;;;;;;;;16.09;37.46;97953.44;6246559;28;20376;-76
2023/05/25 01:40:45;;;;;;;;;;;;;;;16.11;37.62;97956.00;6245444;28;19928;-74
2023/05/25 01:43:46;;;;;;;;;;;;;;;16.08;37.88;97962.38;6246696;28;20310;-74
2023/05/25 01:46:55;;;;;;;;;;;;;;;16.09;37.40;97958.75;6245947;28;19921;-74
2023/05/25 01:50:05;;;;;;;;;;;;;;;16.13;37.02;97970.00;6247044;28;19921;-75
2023/05/25 01:53:09;;;;;;;;;;;;;;;16.21;38.05;97958.84;6245949;28;19921;-76
2023/05/25 01:56:18;;;;;;;;;;;;;;;16.31;37.36;97962.56;6246581;28;20382;-74
2023/05/25 01:59:23;;;;;;;;;;;;;;;16.37;37.63;97962.13;6246418;28;20309;-74
2023/05/25 02:02:25;;;;;;;;;;;;;;;16.43;38.45;97967.00;6246143;28;19921;-75
2023/05/25 02:05:26;;;;;;;;;;;;;;;16.44;37.63;97963.38;6245439;28;20397;-75
2023/05/25 02:08:30;;;;;;;;;;;;;;;16.43;37.01;97961.69;6246033;28;20236;-74
2023/05/25 02:11:34;;;;;;;;;;;;;;;16.52;37.74;97962.81;6246285;28;20223;-76
2023/05/25 02:14:38;;;;;;;;;;;;;;;16.65;37.17;97962.81;6246209;28;20318;-75
2023/05/25 02:17:43;;;;;;;;;;;;;;;16.76;36.48;97946.94;6246269;28;20019;-75
2023/05/25 02:21:04;;;;;;;;;;;;;;;16.95;36.71;97952.59;6230787;28;20313;-75
2023/05/25 02:24:09;;;;;;;;;;;;;;;17.15;37.56;97950.28;6245790;28;20379;-75
2023/05/25 02:27:14;;;;;;;;;;;;;;;17.34;38.60;97947.94;6245346;28;20314;-77
2023/05/25 02:30:16;;;;;;;;;;;;;;;17.53;36.75;97943.91;6245272;28;20401;-75
2023/05/25 02:33:20;;;;;;;;;;;;;;;17.71;37.79;97956.66;6245970;28;19920;-75
2023/05/25 02:36:27;;;;;;;;;;;;;;;17.86;36.49;97951.13;6245584;28;19921;-75
2023/05/25 02:39:30;;;;;;;;;;;;;;;17.98;36.14;97958.19;6245427;28;19927;-75
2023/05/25 02:42:34;;;;;;;;;;;;;;;18.19;34.79;97953.00;6245672;28;19924;-75
2023/05/25 02:45:36;;;;;;;;;;;;;;;18.32;36.05;97959.06;6245494;28;19956;-76
2023/05/25 02:48:37;;;;;;;;;;;;;;;18.52;35.06;97951.28;6245575;28;19921;-76
2023/05/25 02:51:40;;;;;;;;;;;;;;;18.72;35.38;97952.34;6227509;28;19923;-75
2023/05/25 02:54:42;;;;;;;;;;;;;;;18.91;35.00;97951.72;6245249;28;19921;-75
2023/05/25 02:57:43;;;;;;;;;;;;;;;19.06;34.94;97953.16;6245210;28;20055;-75
2023/05/25 03:00:45;;;;;;;;;;;;;;;19.19;35.79;97960.97;6227033;28;19921;-75
2023/05/25 03:03:50;;;;;;;;;;;;;;;19.36;35.13;97962.25;6245332;28;20290;-74
2023/05/25 03:06:52;;;;;;;;;;;;;;;19.51;34.86;97961.81;6245073;28;19921;-74
2023/05/25 03:09:55;;;;;;;;;;;;;;;19.62;34.96;97958.25;6245257;28;19921;-74
2023/05/25 03:12:56;;;;;;;;;;;;;;;19.73;34.67;97960.88;6245008;28;20032;-74
2023/05/25 03:16:02;;;;;;;;;;;;;;;19.85;34.71;97966.16;6245196;28;20302;-75
2023/05/25 03:19:06;;;;;;;;;;;;;;;19.93;34.31;97961.00;6245282;28;20313;-75
2023/05/25 03:22:09;;;;;;;;;;;;;;;19.98;34.55;97964.13;6244963;28;19921;-75
2023/05/25 03:25:13;;;;;;;;;;;;;;;20.11;34.77;97959.41;6227419;28;20394;-74
2023/05/25 03:28:16;;;;;;;;;;;;;;;20.21;33.85;97958.59;6244878;28;19921;-75
2023/05/25 03:31:20;;;;;;;;;;;;;;;20.18;34.06;97963.25;6244003;28;19920;-75
2023/05/25 03:34:25;;;;;;;;;;;;;;;20.16;34.14;97962.53;6243639;28;20070;-73
2023/05/25 03:37:28;;;;;;;;;;;;;;;20.28;34.35;97954.44;6227596;28;19920;-74
2023/05/25 03:40:31;;;;;;;;;;;;;;;20.44;33.88;97957.47;6244677;28;19940;-74
2023/05/25 03:43:40;;;;;;;;;;;;;;;20.61;33.46;97954.19;6244797;28;19921;-75
2023/05/25 03:46:43;;;;;;;;;;;;;;;20.85;33.68;97958.31;6244500;28;20309;-74
2023/05/25 03:49:45;;;;;;;;;;;;;;;21.08;33.04;97949.03;6243981;28;19943;-74
2023/05/25 03:52:46;;;;;;;;;;;;;;;21.28;33.14;97954.41;6244547;28;19921;-74
2023/05/25 03:55:50;;;;;;;;;;;;;;;21.48;32.77;97944.59;6244314;28;19941;-74
2023/05/25 03:58:52;;;;;;;;;;;;;;;21.70;32.75;97948.81;6244284;28;20027;-75
2023/05/25 04:01:57;;;;;;;;;;;;;;;21.94;32.24;97954.56;6226930;28;19921;-74
2023/05/25 04:04:59;;;;;;;;;;;;;;;22.08;32.05;97952.38;6246240;28;20397;-75
2023/05/25 04:08:02;;;;;;;;;;;;;;;22.12;31.91;97948.44;6249154;28;19995;-75
2023/05/25 04:11:06;;;;;;;;;;;;;;;22.31;31.77;97945.72;6231766;28;19920;-74
2023/05/25 04:14:07;;;;;;;;;;;;;;;22.50;31.55;97947.44;6248404;28;19928;-75
2023/05/25 04:17:10;;;;;;;;;;;;;;;22.66;31.72;97941.47;6214330;28;20280;-76
2023/05/25 04:20:17;;;;;;;;;;;;;;;22.84;31.33;97939.66;6248337;28;19945;-74
2023/05/25 04:23:21;;;;;;;;;;;;;;;23.00;31.28;97944.38;6231210;28;19928;-75
2023/05/25 04:26:27;;;;;;;;;;;;;;;23.17;31.64;97941.88;6247911;28;19928;-75
2023/05/25 04:29:31;;;;;;;;;;;;;;;23.48;31.20;97942.34;6248406;28;20063;-74
2023/05/25 04:32:37;;;;;;;;;;;;;;;23.78;30.78;97942.91;6247705;28;20382;-73
2023/05/25 04:35:40;;;;;;;;;;;;;;;24.34;30.31;97938.91;6248345;28;19922;-74
2023/05/25 04:38:46;;;;;;;;;;;;;;;26.16;28.41;97942.66;6247996;28;19974;-74
2023/05/25 04:41:52;;;;;;;;;;;;;;;28.75;25.43;97947.44;6248130;28;19920;-75
2023/05/25 04:44:54;;;;;;;;;;;;;;;31.29;23.25;97949.28;6247260;28;19928;-74
2023/05/25 04:48:00;;;;;;;;;;;;;;;33.38;21.84;97955.97;6247596;28;19925;-74
2023/05/25 04:51:05;;;;;;;;;;;;;;;35.56;20.54;97962.28;6247655;28;19921;-74
2023/05/25 04:54:09;;;;;;;;;;;;;;;38.03;19.13;97958.34;6247870;28;19921;-75
2023/05/25 04:57:15;;;;;;;;;;;;;;;40.39;17.71;97962.81;6248300;28;19921;-74
2023/05/25 05:00:19;;;;;;;;;;;;;;;42.32;16.71;97956.25;6247725;28;19921;-74
2023/05/25 05:03:24;;;;;;;;;;;;;;;44.22;16.47;97958.09;6247580;28;19921;-74
2023/05/25 05:06:31;;;;;;;;;;;;;;;45.66;14.33;97963.66;6246860;28;19921;-75
2023/05/25 05:09:32;;;;;;;;;;;;;;;46.78;10.52;97945.03;6247258;28;19921;-74
2023/05/25 05:12:33;;;;;;;;;;;;;;;47.37;12.36;97955.50;6247039;28;19921;-74
2023/05/25 05:15:37;;;;;;;;;;;;;;;48.21;9.90;97948.50;6246479;28;19927;-74
2023/05/25 05:18:43;;;;;;;;;;;;;;;48.49;9.02;97951.94;6247191;28;20023;-74
2023/05/25 05:21:48;;;;;;;;;;;;;;;48.21;8.71;97952.09;6247424;28;20471;-74
2023/05/25 05:24:49;;;;;;;;;;;;;;;48.58;7.28;97944.44;6246759;28;19921;-74
2023/05/25 05:27:50;;;;;;;;;;;;;;;49.13;7.71;97931.97;6247068;28;20333;-73
2023/05/25 05:30:53;;;;;;;;;;;;;;;49.59;7.31;97939.78;6246383;28;20317;-74
2023/05/25 05:33:54;;;;;;;;;;;;;;;50.51;5.97;97935.88;6246088;28;19943;-75
2023/05/25 05:37:01;;;;;;;;;;;;;;;50.17;5.39;97936.75;6229287;28;19921;-74
2023/05/25 05:40:03;;;;;;;;;;;;;;;49.99;5.58;97920.03;6228947;28;19940;-73
2023/05/25 05:43:08;;;;;;;;;;;;;;;49.82;5.01;97915.25;6245461;28;20378;-74
2023/05/25 05:46:15;;;;;;;;;;;;;;;48.70;4.82;97918.72;6246801;28;19917;-74
2023/05/25 05:49:18;;;;;;;;;;;;;;;48.09;4.48;97916.38;6246341;28;20378;-75
2023/05/25 05:52:22;;;;;;;;;;;;;;;47.33;5.11;97909.88;6245719;28;20433;-75
2023/05/25 05:55:26;;;;;;;;;;;;;;;48.00;4.68;97895.19;6245958;28;19917;-74
2023/05/25 05:58:29;;;;;;;;;;;;;;;49.16;4.21;97906.19;6245787;28;20002;-73
2023/05/25 06:01:35;;;;;;;;;;;;;;;50.00;3.66;97915.25;6246437;28;19923;-73
2023/05/25 06:04:37;;;;;;;;;;;;;;;49.43;4.06;97903.09;6245514;28;20275;-73
2023/05/25 06:07:43;;;;;;;;;;;;;;;49.99;4.14;97903.22;6246453;28;19923;-74
2023/05/25 06:10:47;;;;;;;;;;;;;;;51.30;4.18;97899.81;6245848;28;19921;-73
2023/05/25 06:13:51;;;;;;;;;;;;;;;52.37;3.56;97897.38;6246025;28;19928;-74
2023/05/25 06:16:59;;;;;;;;;;;;;;;52.71;3.63;97901.72;6245988;28;19928;-73
2023/05/25 06:20:00;;;;;;;;;;;;;;;53.44;3.93;97892.38;6245038;28;19928;-73
2023/05/25 06:23:02;;;;;;;;;;;;;;;54.90;2.99;97905.97;6245827;28;20392;-73
2023/05/25 06:26:04;;;;;;;;;;;;;;;56.41;2.87;97893.78;6245386;28;19971;-73
2023/05/25 06:29:09;;;;;;;;;;;;;;;56.69;2.97;97895.47;6245336;28;19932;-73
2023/05/25 06:32:15;;;;;;;;;;;;;;;55.91;2.59;97889.22;6245748;28;19927;-74
2023/05/25 06:35:18;;;;;;;;;;;;;;;55.44;2.79;97876.97;6244474;28;20015;-73
2023/05/25 06:38:22;;;;;;;;;;;;;;;56.29;2.24;97877.03;6245483;28;19928;-73
2023/05/25 06:41:26;;;;;;;;;;;;;;;56.77;2.65;97880.22;6244695;28;20398;-73
2023/05/25 06:44:29;;;;;;;;;;;;;;;58.29;2.69;97883.75;6245313;28;19928;-74
2023/05/25 06:47:34;;;;;;;;;;;;;;;59.83;1.56;97879.84;6255786;28;19927;-74
2023/05/25 06:50:38;;;;;;;;;;;;;;;60.79;1.89;97881.97;6266260;28;19921;-74
2023/05/25 06:53:43;;;;;;;;;;;;;;;61.41;1.53;97891.13;6270634;28;19921;-73
2023/05/25 06:56:53;;;;;;;;;;;;;;;61.46;1.45;97882.16;6261191;28;19905;-73
2023/05/25 07:00:11;;;;;;;;;;;;;;;59.07;2.43;97875.06;6229284;28;20336;-73
2023/05/25 07:03:16;;;;;;;;;;;;;;;56.78;3.21;97856.41;6208583;28;19925;-74
2023/05/25 07:06:24;;;;;;;;;;;;;;;58.21;2.72;97854.53;6224665;28;19953;-73
2023/05/25 07:09:32;;;;;;;;;;;;;;;59.63;1.48;97864.38;6238993;28;19929;-74
2023/05/25 07:12:37;;;;;;;;;;;;;;;55.14;2.53;97852.13;6229618;28;20441;-74
2023/05/25 07:15:39;;;;;;;;;;;;;;;50.74;3.47;97830.81;6202941;28;20369;-74
2023/05/25 07:18:46;;;;;;;;;;;;;;;47.10;4.52;97812.31;6203866;28;19922;-74
2023/05/25 07:21:50;;;;;;;;;;;;;;;44.45;5.58;97806.66;6203237;28;19929;-74
2023/05/25 07:24:59;;;;;;;;;;;;;;;41.90;6.46;97794.28;6203283;28;19932;-74
2023/05/25 07:28:01;;;;;;;;;;;;;;;43.74;5.79;97797.16;6187245;28;19921;-74
2023/05/25 07:31:05;;;;;;;;;;;;;;;45.29;5.40;97809.66;6186411;28;19952;-74
2023/05/25 07:34:09;;;;;;;;;;;;;;;43.87;5.71;97797.28;6220555;28;19948;-74
2023/05/25 07:37:13;;;;;;;;;;;;;;;42.75;6.02;97795.38;6220550;28;19925;-74
2023/05/25 07:40:14;;;;;;;;;;;;;;;41.93;6.56;97795.69;6221734;28;19921;-74
2023/05/25 07:43:18;;;;;;;;;;;;;;;40.90;6.77;97797.53;6225057;28;20387;-73
2023/05/25 07:46:24;;;;;;;;;;;;;;;39.79;7.41;97793.97;6225132;28;19921;-73
2023/05/25 07:49:29;;;;;;;;;;;;;;;38.89;7.80;97795.66;6225195;28;20383;-73
2023/05/25 07:52:33;;;;;;;;;;;;;;;38.54;7.70;97796.91;6206737;28;19928;-74
2023/05/25 07:55:40;;;;;;;;;;;;;;;39.61;7.41;97797.97;6224992;28;20425;-74
2023/05/25 07:58:45;;;;;;;;;;;;;;;41.46;6.69;97799.53;6209954;28;19932;-73
2023/05/25 08:01:51;;;;;;;;;;;;;;;41.59;7.08;97800.94;6200200;28;19922;-73
2023/05/25 08:04:58;;;;;;;;;;;;;;;40.61;7.11;97800.75;6200234;28;19955;-74
2023/05/25 08:08:00;;;;;;;;;;;;;;;40.14;7.17;97800.78;6199187;28;20386;-73
2023/05/25 08:11:01;;;;;;;;;;;;;;;40.11;7.60;97801.31;6199431;28;19922;-73
2023/05/25 08:14:07;;;;;;;;;;;;;;;41.40;7.03;97801.47;6200106;28;19922;-73
2023/05/25 08:17:14;;;;;;;;;;;;;;;42.58;6.87;97796.56;6199986;28;19921;-74
2023/05/25 08:20:22;;;;;;;;;;;;;;;41.70;7.30;97799.81;6199844;28;19921;-74
2023/05/25 08:23:26;;;;;;;;;;;;;;;40.78;7.47;97792.25;6199202;28;19932;-74
2023/05/25 08:26:29;;;;;;;;;;;;;;;41.47;7.34;97791.00;6199638;28;19917;-74
2023/05/25 08:29:32;;;;;;;;;;;;;;;43.43;6.65;97797.44;6199033;28;19944;-73
2023/05/25 08:32:36;;;;;;;;;;;;;;;45.67;5.77;97809.63;6198986;28;19922;-73
2023/05/25 08:35:42;;;;;;;;;;;;;;;47.60;5.24;97801.06;6199458;28;20333;-74
2023/05/25 08:38:44;;;;;;;;;;;;;;;47.71;4.88;97798.84;6198643;28;19918;-73
2023/05/25 08:41:49;;;;;;;;;;;;;;;46.85;5.43;97787.81;6199346;28;20068;-74
2023/05/25 08:44:52;;;;;;;;;;;;;;;47.66;5.28;97791.41;6199115;28;19968;-74
2023/05/25 08:47:59;;;;;;;;;;;;;;;49.75;4.51;97791.03;6199160;28;20008;-74
2023/05/25 08:51:07;;;;;;;;;;;;;;;50.71;4.10;97795.06;6199069;28;19992;-74
2023/05/25 08:54:16;;;;;;;;;;;;;;;50.95;4.18;97794.38;6199101;28;19922;-73
2023/05/25 08:57:31;;;;;;;;;;;;;;;48.84;4.27;97788.09;6199779;28;20012;-74
2023/05/25 09:00:39;;;;;;;;;;;;;;;46.46;5.25;97780.84;6222506;28;19921;-74
2023/05/25 09:03:45;;;;;;;;;;;;;;;45.59;5.76;97777.78;6223363;28;19921;-73
2023/05/25 09:06:51;;;;;;;;;;;;;;;45.60;5.75;97765.53;6222985;28;20383;-75
2023/05/25 09:09:56;;;;;;;;;;;;;;;44.00;6.54;97767.25;6222660;28;20012;-72
2023/05/25 09:13:02;;;;;;;;;;;;;;;42.03;7.14;97769.91;6223080;28;19921;-73
2023/05/25 09:16:04;;;;;;;;;;;;;;;40.22;7.66;97749.84;6221963;28;19921;-74
2023/05/25 09:19:07;;;;;;;;;;;;;;;38.75;8.52;97754.75;6222165;28;19928;-74
2023/05/25 09:22:14;;;;;;;;;;;;;;;37.84;8.74;97747.03;6222723;28;20007;-74
2023/05/25 09:25:21;;;;;;;;;;;;;;;37.24;9.33;97742.25;6222083;28;20406;-74
2023/05/25 09:28:24;;;;;;;;;;;;;;;36.39;9.13;97741.25;6222722;28;19925;-74
2023/05/25 09:31:30;;;;;;;;;;;;;;;35.69;9.71;97736.72;6204255;28;19928;-74
2023/05/25 09:34:33;;;;;;;;;;;;;;;35.43;9.60;97733.38;6222337;28;19921;-74
2023/05/25 09:37:42;;;;;;;;;;;;;;;35.57;9.43;97734.00;6205430;28;20272;-74
2023/05/25 09:40:43;;;;;;;;;;;;;;;35.85;9.34;97735.16;6204401;28;19921;-74
2023/05/25 09:43:46;;;;;;;;;;;;;;;36.12;9.92;97725.38;6221812;28;19928;-75
2023/05/25 09:46:47;;;;;;;;;;;;;;;36.35;9.64;97726.34;6221662;28;19929;-74
2023/05/25 09:49:51;;;;;;;;;;;;;;;36.69;9.40;97724.56;6222068;28;20298;-74
2023/05/25 09:53:01;;;;;;;;;;;;;;;39.18;8.23;97728.22;6222108;28;19921;-74
2023/05/25 09:56:05;;;;;;;;;;;;;;;40.38;7.68;97729.50;6222303;28;19921;-75
2023/05/25 09:59:06;;;;;;;;;;;;;;;41.08;7.96;97723.59;6221271;28;20016;-72
2023/05/25 10:02:10;;;;;;;;;;;;;;;42.51;6.88;97726.84;6221262;28;20379;-74
2023/05/25 10:05:12;;;;;;;;;;;;;;;43.50;6.92;97723.91;6221859;28;19928;-74
2023/05/25 10:08:16;;;;;;;;;;;;;;;44.19;6.87;97725.69;6221581;28;19928;-74
2023/05/25 10:11:20;;;;;;;;;;;;;;;44.90;6.29;97726.66;6221736;28;19925;-74
2023/05/25 10:14:27;;;;;;;;;;;;;;;45.48;6.03;97712.38;6221820;28;20367;-73
2023/05/25 10:17:30;;;;;;;;;;;;;;;46.16;5.85;97716.34;6220684;28;20330;-74
2023/05/25 10:20:34;;;;;;;;;;;;;;;46.27;5.75;97708.59;6221336;28;20460;-73
2023/05/25 10:23:46;;;;;;;;;;;;;;;46.33;5.84;97708.22;6220833;28;19963;-73
2023/05/25 10:26:53;;;;;;;;;;;;;;;45.87;5.98;97709.13;6221068;28;20379;-73
2023/05/25 10:29:58;;;;;;;;;;;;;;;45.61;6.05;97702.41;6221161;28;20542;-75
2023/05/25 10:33:01;;;;;;;;;;;;;;;46.20;5.97;97703.44;6220351;28;19929;-74
2023/05/25 10:36:06;;;;;;;;;;;;;;;45.97;5.95;97696.16;6221297;28;20298;-74
2023/05/25 10:39:08;;;;;;;;;;;;;;;44.86;6.28;97701.44;6220637;28;20022;-74
2023/05/25 10:42:10;;;;;;;;;;;;;;;44.37;6.70;97699.94;6220570;28;19928;-74
2023/05/25 10:45:16;;;;;;;;;;;;;;;44.39;6.67;97697.69;6221069;28;19921;-74
2023/05/25 10:48:18;;;;;;;;;;;;;;;44.32;6.43;97700.00;6220894;28;19921;-74
2023/05/25 10:51:36;;;;;;;;;;;;;;;43.74;6.55;97692.66;6220913;28;19974;-74
2023/05/25 10:54:42;;;;;;;;;;;;;;;43.66;6.80;97685.00;6220892;28;19925;-74
2023/05/25 10:57:44;;;;;;;;;;;;;;;44.20;6.88;97692.13;6219557;28;19921;-73
2023/05/25 11:00:58;;;;;;;;;;;;;;;43.52;6.79;97682.06;6220072;28;20291;-75
2023/05/25 11:04:05;;;;;;;;;;;;;;;42.05;7.50;97679.25;6220549;28;19921;-74
2023/05/25 11:07:12;;;;;;;;;;;;;;;40.91;7.97;97669.50;6219782;28;19921;-75
2023/05/25 11:10:13;;;;;;;;;;;;;;;39.70;8.79;97671.59;6219947;28;20383;-74
2023/05/25 11:13:36;;;;;;;;;;;;;;;39.02;8.92;97663.97;6220740;28;20196;-75
2023/05/25 11:16:40;;;;;;;;;;;;;;;39.39;8.84;97659.56;6226186;28;20544;-74
2023/05/25 11:19:46;;;;;;;;;;;;;;;40.63;8.15;97667.28;6225666;28;19932;-74
2023/05/25 11:22:49;;;;;;;;;;;;;;;41.17;7.80;97663.97;6225331;28;19925;-74
2023/05/25 11:25:52;;;;;;;;;;;;;;;40.13;8.27;97656.63;6225098;28;19921;-74
2023/05/25 11:28:54;;;;;;;;;;;;;;;38.39;8.81;97649.91;6225133;28;20433;-75
2023/05/25 11:32:01;;;;;;;;;;;;;;;37.53;9.82;97652.41;6224502;28;20422;-74
2023/05/25 11:35:07;;;;;;;;;;;;;;;37.40;9.67;97645.34;6224296;28;19921;-75
2023/05/25 11:38:14;;;;;;;;;;;;;;;37.35;10.04;97639.78;6225460;28;19921;-74
2023/05/25 11:41:17;;;;;;;;;;;;;;;36.54;9.90;97645.59;6224214;28;20015;-74
2023/05/25 11:44:28;;;;;;;;;;;;;;;35.73;10.42;97639.38;6224680;28;19933;-74
2023/05/25 11:47:29;;;;;;;;;;;;;;;35.27;11.23;97647.38;6224361;28;19943;-75
2023/05/25 11:50:34;;;;;;;;;;;;;;;34.82;10.98;97642.47;6224465;28;19921;-74
2023/05/25 11:53:42;;;;;;;;;;;;;;;34.43;11.60;97636.53;6224573;28;20014;-74
2023/05/25 11:56:46;;;;;;;;;;;;;;;33.81;11.71;97633.16;6224737;28;19921;-75
2023/05/25 11:59:51;;;;;;;;;;;;;;;33.32;12.29;97629.53;6223745;28;19925;-74
2023/05/25 12:02:56;;;;;;;;;;;;;;;33.17;12.39;97631.78;6206794;28;19952;-74
2023/05/25 12:06:04;;;;;;;;;;;;;;;33.03;12.52;97628.34;6224390;28;20409;-74
2023/05/25 12:09:11;;;;;;;;;;;;;;;32.84;12.77;97627.47;6222012;28;19921;-73
2023/05/25 12:12:13;;;;;;;;;;;;;;;32.71;12.48;97622.94;6206195;28;19921;-74
2023/05/25 12:15:24;;;;;;;;;;;;;;;32.49;12.91;97625.19;6222165;28;19932;-74
2023/05/25 12:18:28;;;;;;;;;;;;;;;32.05;13.14;97624.22;6206586;28;19917;-74
2023/05/25 12:21:32;;;;;;;;;;;;;;;31.67;13.53;97616.81;6223223;28;19921;-74
2023/05/25 12:24:38;;;;;;;;;;;;;;;31.40;13.34;97626.16;6223219;28;19925;-74
2023/05/25 12:27:42;;;;;;;;;;;;;;;31.36;13.51;97614.00;6223548;28;19917;-75
2023/05/25 12:30:46;;;;;;;;;;;;;;;31.92;13.14;97616.13;6224324;28;19921;-74
2023/05/25 12:34:03;;;;;;;;;;;;;;;32.63;12.94;97615.88;6207079;28;20015;-75
2023/05/25 12:37:21;;;;;;;;;;;;;;;33.25;12.47;97621.41;6223896;28;19922;-72
2023/05/25 12:40:23;;;;;;;;;;;;;;;33.59;12.11;97618.34;6223593;28;19929;-74
2023/05/25 12:43:35;;;;;;;;;;;;;;;33.66;12.18;97621.81;6224015;28;20405;-74
2023/05/25 12:46:38;;;;;;;;;;;;;;;33.83;12.42;97613.81;6223620;28;19921;-74
2023/05/25 12:49:47;;;;;;;;;;;;;;;33.72;12.29;97623.63;6223561;28;20307;-74
2023/05/25 12:53:01;;;;;;;;;;;;;;;33.25;12.36;97609.66;6223457;28;20340;-74
2023/05/25 12:56:05;;;;;;;;;;;;;;;32.85;12.82;97615.50;6223271;28;20318;-74
2023/05/25 12:59:15;;;;;;;;;;;;;;;32.75;12.78;97606.97;6205452;28;19941;-74
2023/05/25 13:02:17;;;;;;;;;;;;;;;32.57;12.88;97605.03;6222013;28;19944;-75
2023/05/25 13:05:18;;;;;;;;;;;;;;;32.33;12.92;97598.47;6222853;28;19921;-74
2023/05/25 13:08:19;;;;;;;;;;;;;;;32.17;13.07;97595.22;6205158;28;19928;-74
2023/05/25 13:11:20;;;;;;;;;;;;;;;32.08;13.36;97596.56;6222510;28;20027;-74
2023/05/25 13:14:25;;;;;;;;;;;;;;;32.11;13.21;97590.66;6222593;28;19921;-75
2023/05/25 13:17:28;;;;;;;;;;;;;;;32.35;12.58;97596.38;6222793;28;19972;-75
2023/05/25 13:20:32;;;;;;;;;;;;;;;32.43;12.90;97593.38;6222655;28;19921;-74
2023/05/25 13:23:33;;;;;;;;;;;;;;;32.39;12.60;97598.44;6221789;28;19921;-75
2023/05/25 13:26:34;;;;;;;;;;;;;;;32.53;12.53;97587.47;6221638;28;20015;-74
2023/05/25 13:29:35;;;;;;;;;;;;;;;32.87;12.48;97589.69;6222284;28;20228;-75
2023/05/25 13:32:38;;;;;;;;;;;;;;;33.21;12.72;97589.38;6221505;28;19921;-74
2023/05/25 13:35:56;;;;;;;;;;;;;;;33.35;12.22;97582.72;6222252;28;19968;-73
2023/05/25 13:38:58;;;;;;;;;;;;;;;33.22;12.60;97586.41;6221205;28;20426;-73
2023/05/25 13:42:03;;;;;;;;;;;;;;;33.05;12.77;97580.72;6222297;28;19945;-75
2023/05/25 13:45:05;;;;;;;;;;;;;;;32.79;12.48;97576.34;6222371;28;19921;-73
2023/05/25 13:48:08;;;;;;;;;;;;;;;32.64;12.77;97573.97;6221864;28;20377;-74
2023/05/25 13:51:15;;;;;;;;;;;;;;;32.54;12.70;97573.63;6221785;28;19960;-74
2023/05/25 13:54:22;;;;;;;;;;;;;;;32.09;13.34;97576.44;6221774;28;19927;-74
2023/05/25 13:57:23;;;;;;;;;;;;;;;31.64;13.66;97567.47;6203337;28;19980;-74
2023/05/25 14:00:24;;;;;;;;;;;;;;;31.43;13.50;97566.72;6203206;28;19921;-74
2023/05/25 14:03:27;;;;;;;;;;;;;;;31.30;13.24;97573.00;6220978;28;20079;-73
2023/05/25 14:06:29;;;;;;;;;;;;;;;31.08;13.69;97568.88;6221031;28;19921;-74
2023/05/25 14:09:32;;;;;;;;;;;;;;;30.92;13.73;97570.19;6221440;28;19962;-74
2023/05/25 14:12:36;;;;;;;;;;;;;;;30.82;13.44;97572.50;6221283;28;19921;-75
2023/05/25 14:15:39;;;;;;;;;;;;;;;30.73;14.02;97565.59;6221535;28;19968;-74
2023/05/25 14:18:44;;;;;;;;;;;;;;;30.54;13.91;97562.66;6221402;28;19921;-74
2023/05/25 14:21:48;;;;;;;;;;;;;;;30.30;14.05;97566.03;6221413;28;20024;-74
2023/05/25 14:24:49;;;;;;;;;;;;;;;30.08;14.07;97565.34;6220069;28;19928;-75
2023/05/25 14:27:52;;;;;;;;;;;;;;;29.97;14.26;97567.59;6219917;28;19921;-74
2023/05/25 14:30:53;;;;;;;;;;;;;;;29.87;14.26;97567.19;6219840;28;20326;-74
2023/05/25 14:33:57;;;;;;;;;;;;;;;29.80;14.67;97560.88;6221027;28;19947;-75
2023/05/25 14:37:03;;;;;;;;;;;;;;;29.76;14.56;97565.06;6221285;28;19932;-75
2023/05/25 14:40:06;;;;;;;;;;;;;;;29.63;14.54;97548.75;6220752;28;20341;-75
2023/05/25 14:43:10;;;;;;;;;;;;;;;29.42;14.61;97555.13;6219798;28;19928;-74
2023/05/25 14:46:12;;;;;;;;;;;;;;;29.23;15.21;97551.28;6220783;28;19930;-75
2023/05/25 14:49:16;;;;;;;;;;;;;;;29.07;15.14;97556.00;6220422;28;19925;-74
2023/05/25 14:52:22;;;;;;;;;;;;;;;28.90;15.41;97554.59;6220663;28;19921;-75
2023/05/25 14:55:25;;;;;;;;;;;;;;;28.74;15.38;97549.53;6203262;28;19921;-74
2023/05/25 14:58:27;;;;;;;;;;;;;;;28.54;15.72;97544.78;6218844;28;20417;-73
2023/05/25 15:01:30;;;;;;;;;;;;;;;28.34;15.98;97550.03;6220230;28;19921;-73
2023/05/25 15:04:33;;;;;;;;;;;;;;;28.16;15.51;97549.66;6219781;28;19928;-75
2023/05/25 15:07:40;;;;;;;;;;;;;;;27.98;15.89;97545.53;6220504;28;19973;-75
2023/05/25 15:10:43;;;;;;;;;;;;;;;27.82;16.31;97556.59;6220440;28;20391;-74
2023/05/25 15:13:47;;;;;;;;;;;;;;;27.68;16.65;97555.59;6219888;28;20405;-75
2023/05/25 15:16:50;;;;;;;;;;;;;;;27.56;16.62;97559.81;6220265;28;19921;-75
2023/05/25 15:19:53;;;;;;;;;;;;;;;27.42;17.02;97558.00;6219740;28;19921;-74
2023/05/25 15:22:56;;;;;;;;;;;;;;;27.27;16.82;97552.63;6219993;28;20395;-74
2023/05/25 15:26:02;;;;;;;;;;;;;;;27.04;17.61;97542.72;6202402;28;20414;-75
2023/05/25 15:29:06;;;;;;;;;;;;;;;26.78;18.11;97553.16;6220197;28;19925;-75
2023/05/25 15:32:08;;;;;;;;;;;;;;;26.53;18.23;97552.59;6219464;28;19921;-75
2023/05/25 15:35:11;;;;;;;;;;;;;;;26.28;18.43;97552.78;6220145;28;20276;-75
2023/05/25 15:38:14;;;;;;;;;;;;;;;26.03;18.16;97546.75;6219918;28;19968;-75
2023/05/25 15:41:22;;;;;;;;;;;;;;;25.86;18.63;97548.72;6164316;28;20381;-75
2023/05/25 15:44:25;;;;;;;;;;;;;;;25.65;19.19;97551.22;6219829;28;20382;-74
2023/05/25 15:47:26;;;;;;;;;;;;;;;25.43;19.65;97553.69;6219248;28;20024;-73
2023/05/25 15:50:32;;;;;;;;;;;;;;;25.18;19.76;97547.56;6219756;28;19921;-74
2023/05/25 15:53:35;;;;;;;;;;;;;;;24.95;19.73;97549.31;6219851;28;19929;-74
2023/05/25 15:56:39;;;;;;;;;;;;;;;24.75;19.84;97554.25;6219901;28;19928;-74
2023/05/25 15:59:40;;;;;;;;;;;;;;;24.57;20.26;97549.06;6219550;28;19922;-76
2023/05/25 16:02:46;;;;;;;;;;;;;;;24.37;20.35;97548.56;6224511;28;19921;-76
2023/05/25 16:05:47;;;;;;;;;;;;;;;24.17;21.15;97550.75;6223684;28;19921;-75